Palmerston, Tasmania

1:10 AM AEDT on January 28, 2015 (GMT +1100)
Richmond Village | Change Station
CLOSE
Current Station
Personal Weather Station
Location: Richmond, TAS
Elevation: 72 ft
Nearby Weather Stations

Elev 72 ft 42.73 °S, 147.44 °E | Updated 8 seconds ago

Mostly Cloudy
Mostly Cloudy
55.0 °F
Feels Like 55.0 °F
N
3.1
Wind Variable Wind from South
Gusts 4.5 mph

Today
High -- | Low -- °F
--% Chance of Precip.
Yesterday
High -- | Low -- °F
Precip. -- in
6:06 AM 8:38 PM
First Quarter, 54% visible
Pressure 30.18 in
Visibility 6.2 miles
Clouds Few 3000 ft
Mostly Cloudy 4800 ft
Dew Point 47 °F
Humidity 75%
Rainfall 0.00 in
Snow Depth Not available.
UV 0 out of 12
Pollen Not available.
Air Quality Not available.
Flu Activity Not available.
METAR YMHB 271400Z 19011KT 9999 FEW030 BKN048 13/06 Q1022

More Conditions Fewer Conditions

Pressure 30.18 in
Visibility 6.2 miles
Clouds Few 3000 ft
Mostly Cloudy 4800 ft
Dew Point 47 °F
Humidity 75%
Rainfall 0.00 in
Snow Depth Not available.
UV 0 out of 12
Pollen Not available.
Air Quality Not available.
Flu Activity Not available.
METAR YMHB 271400Z 19011KT 9999 FEW030 BKN048 13/06 Q1022

More Conditions Fewer Conditions

10-Day Weather Forecast

Almanac

Astronomy

Jan. 28, 2015 Rise Set
Actual Time
Civil Twilight
Nautical Twilight
Astronomical Twilight
Moon
Length of Visible Light
Length of Day
Tomorrow will be .
, % of the Moon is Illuminated

Today's Extremes

Country Highs Country Lows

Community

WunderPhotos

Upload Photos

1,790,637 photos uploaded!

WunderBlogs® & News

Nearby

Air Quality

  Air Quality AQ Index Pollutant
Not available.

Snow Depth

Station Depth Elevation

Earthquake Activity

City Distance Mag. Time & Date
Minimum magnitude displayed is 2.5.

Coastal Water Temperatures

Place Temperature

Nearby Weather Stations